sensor_id;sensor_type;location;lat;lon;timestamp;pressure;altitude;pressure_sealevel;temperature;humidity
3598;BME280;1813;52.016;8.714;2023-03-14T00:01:39;-16261.94;;;-139.71;62.02
3598;BME280;1813;52.016;8.714;2023-03-14T00:04:13;-16261.94;;;-139.71;62.22
3598;BME280;1813;52.016;8.714;2023-03-14T00:06:47;-16261.94;;;-139.71;62.54
3598;BME280;1813;52.016;8.714;2023-03-14T00:09:21;-16261.94;;;-139.71;62.54
3598;BME280;1813;52.016;8.714;2023-03-14T00:11:54;-16261.94;;;-139.71;62.62
3598;BME280;1813;52.016;8.714;2023-03-14T00:14:28;-16261.94;;;-139.71;62.61
3598;BME280;1813;52.016;8.714;2023-03-14T00:17:05;-16261.94;;;-139.71;62.57
3598;BME280;1813;52.016;8.714;2023-03-14T00:19:42;-16261.94;;;-139.71;62.67
3598;BME280;1813;52.016;8.714;2023-03-14T00:22:15;-16261.94;;;-139.71;62.69
3598;BME280;1813;52.016;8.714;2023-03-14T00:24:50;-16261.94;;;-139.71;62.67
3598;BME280;1813;52.016;8.714;2023-03-14T00:27:24;-16261.94;;;-139.71;62.68
3598;BME280;1813;52.016;8.714;2023-03-14T00:29:58;-16261.94;;;-139.71;62.96
3598;BME280;1813;52.016;8.714;2023-03-14T00:32:37;-16261.94;;;-139.71;62.71
3598;BME280;1813;52.016;8.714;2023-03-14T00:35:12;-16261.94;;;-139.71;62.76
3598;BME280;1813;52.016;8.714;2023-03-14T00:37:46;-16261.94;;;-139.71;62.62
3598;BME280;1813;52.016;8.714;2023-03-14T00:40:20;-16261.94;;;-139.71;62.59
3598;BME280;1813;52.016;8.714;2023-03-14T00:42:54;-16261.94;;;-139.71;62.83
3598;BME280;1813;52.016;8.714;2023-03-14T00:45:30;-16261.94;;;-139.71;62.75
3598;BME280;1813;52.016;8.714;2023-03-14T00:48:08;-16261.94;;;-139.71;62.57
3598;BME280;1813;52.016;8.714;2023-03-14T00:50:42;-16261.94;;;-139.71;62.62
3598;BME280;1813;52.016;8.714;2023-03-14T00:53:21;-16261.94;;;-139.71;62.44
3598;BME280;1813;52.016;8.714;2023-03-14T00:55:56;-16261.94;;;-139.71;62.78
3598;BME280;1813;52.016;8.714;2023-03-14T00:58:29;-16261.94;;;-139.71;62.58
3598;BME280;1813;52.016;8.714;2023-03-14T01:01:08;-16261.94;;;-139.71;62.68
3598;BME280;1813;52.016;8.714;2023-03-14T01:03:46;-16261.94;;;-139.71;62.56
3598;BME280;1813;52.016;8.714;2023-03-14T01:06:23;-16261.94;;;-139.71;62.49
3598;BME280;1813;52.016;8.714;2023-03-14T01:08:57;-16261.94;;;-139.71;62.50
3598;BME280;1813;52.016;8.714;2023-03-14T01:11:33;-16261.94;;;-139.71;62.64
3598;BME280;1813;52.016;8.714;2023-03-14T01:14:07;-16261.94;;;-139.71;62.83
3598;BME280;1813;52.016;8.714;2023-03-14T01:16:42;-16261.94;;;-139.71;62.86
3598;BME280;1813;52.016;8.714;2023-03-14T01:19:18;-16261.94;;;-139.71;62.81
3598;BME280;1813;52.016;8.714;2023-03-14T01:21:52;-16261.94;;;-139.71;62.49
3598;BME280;1813;52.016;8.714;2023-03-14T01:24:27;-16261.94;;;-139.71;62.48
3598;BME280;1813;52.016;8.714;2023-03-14T01:27:01;-16261.94;;;-139.71;62.53
3598;BME280;1813;52.016;8.714;2023-03-14T01:29:36;-16261.94;;;-139.71;62.42
3598;BME280;1813;52.016;8.714;2023-03-14T01:32:10;-16261.94;;;-139.71;62.17
3598;BME280;1813;52.016;8.714;2023-03-14T01:34:47;-16261.94;;;-139.71;61.98
3598;BME280;1813;52.016;8.714;2023-03-14T01:37:21;-16261.94;;;-139.71;61.79
3598;BME280;1813;52.016;8.714;2023-03-14T01:39:57;-16261.94;;;-139.71;61.76
3598;BME280;1813;52.016;8.714;2023-03-14T01:42:32;-16261.94;;;-139.71;61.74
3598;BME280;1813;52.016;8.714;2023-03-14T01:48:11;-16261.94;;;-139.71;61.64
3598;BME280;1813;52.016;8.714;2023-03-14T01:50:48;-16261.94;;;-139.71;61.75
3598;BME280;1813;52.016;8.714;2023-03-14T01:53:22;-16261.94;;;-139.71;62.10
3598;BME280;1813;52.016;8.714;2023-03-14T01:55:57;-16261.94;;;-139.71;62.12
3598;BME280;1813;52.016;8.714;2023-03-14T01:58:32;-16261.94;;;-139.71;62.03
3598;BME280;1813;52.016;8.714;2023-03-14T02:01:09;-16261.94;;;-139.71;61.94
3598;BME280;1813;52.016;8.714;2023-03-14T02:03:47;-16261.94;;;-139.71;61.79
3598;BME280;1813;52.016;8.714;2023-03-14T02:06:30;-16261.94;;;-139.71;61.89
3598;BME280;1813;52.016;8.714;2023-03-14T02:09:06;-16261.94;;;-139.71;61.79
3598;BME280;1813;52.016;8.714;2023-03-14T02:11:40;-16261.94;;;-139.71;61.78
3598;BME280;1813;52.016;8.714;2023-03-14T02:14:32;-16261.94;;;-139.71;61.56
3598;BME280;1813;52.016;8.714;2023-03-14T02:17:26;-16261.94;;;-139.71;61.64
3598;BME280;1813;52.016;8.714;2023-03-14T02:20:25;-16261.94;;;-139.71;61.69
3598;BME280;1813;52.016;8.714;2023-03-14T02:23:05;-16261.94;;;-139.71;61.60
3598;BME280;1813;52.016;8.714;2023-03-14T02:25:43;-16261.94;;;-139.71;61.52
3598;BME280;1813;52.016;8.714;2023-03-14T02:28:23;-16261.94;;;-139.71;61.73
3598;BME280;1813;52.016;8.714;2023-03-14T02:31:02;-16261.94;;;-139.71;61.89
3598;BME280;1813;52.016;8.714;2023-03-14T02:33:38;-16261.94;;;-139.71;61.66
3598;BME280;1813;52.016;8.714;2023-03-14T02:36:14;-16261.94;;;-139.71;61.67
3598;BME280;1813;52.016;8.714;2023-03-14T02:38:53;-16261.94;;;-139.71;62.02
3598;BME280;1813;52.016;8.714;2023-03-14T02:41:31;-16261.94;;;-139.71;63.40
3598;BME280;1813;52.016;8.714;2023-03-14T02:44:12;-16261.94;;;-139.71;64.96
3598;BME280;1813;52.016;8.714;2023-03-14T02:46:48;-16261.94;;;-139.71;66.88
3598;BME280;1813;52.016;8.714;2023-03-14T02:49:23;-16261.94;;;-139.71;69.28
3598;BME280;1813;52.016;8.714;2023-03-14T02:52:00;-16261.94;;;-139.71;70.90
3598;BME280;1813;52.016;8.714;2023-03-14T02:54:35;-16261.94;;;-139.71;72.25
3598;BME280;1813;52.016;8.714;2023-03-14T02:57:09;-16261.94;;;-139.71;73.19
3598;BME280;1813;52.016;8.714;2023-03-14T02:59:48;-16261.94;;;-139.71;73.38
3598;BME280;1813;52.016;8.714;2023-03-14T03:02:24;-16261.94;;;-139.71;73.50
3598;BME280;1813;52.016;8.714;2023-03-14T03:05:00;-16261.94;;;-139.71;73.48
3598;BME280;1813;52.016;8.714;2023-03-14T03:07:34;-16261.94;;;-139.71;73.83
3598;BME280;1813;52.016;8.714;2023-03-14T03:10:10;-16261.94;;;-139.71;74.15
3598;BME280;1813;52.016;8.714;2023-03-14T03:12:44;-16261.94;;;-139.71;74.71
3598;BME280;1813;52.016;8.714;2023-03-14T03:15:23;-16261.94;;;-139.71;75.22
3598;BME280;1813;52.016;8.714;2023-03-14T03:17:57;-16261.94;;;-139.71;75.92
3598;BME280;1813;52.016;8.714;2023-03-14T03:20:31;-16261.94;;;-139.71;76.28
3598;BME280;1813;52.016;8.714;2023-03-14T03:23:06;-16261.94;;;-139.71;76.77
3598;BME280;1813;52.016;8.714;2023-03-14T03:25:48;-16261.94;;;-139.71;77.05
3598;BME280;1813;52.016;8.714;2023-03-14T03:28:22;-16261.94;;;-139.71;77.34
3598;BME280;1813;52.016;8.714;2023-03-14T03:31:06;-16261.94;;;-139.71;77.27
3598;BME280;1813;52.016;8.714;2023-03-14T03:33:42;-16261.94;;;-139.71;77.20
3598;BME280;1813;52.016;8.714;2023-03-14T03:36:20;-16261.94;;;-139.71;77.08
3598;BME280;1813;52.016;8.714;2023-03-14T03:38:54;-16261.94;;;-139.71;76.81
3598;BME280;1813;52.016;8.714;2023-03-14T03:41:29;-16261.94;;;-139.71;76.58
3598;BME280;1813;52.016;8.714;2023-03-14T03:44:04;-16261.94;;;-139.71;76.37
3598;BME280;1813;52.016;8.714;2023-03-14T03:46:41;-16261.94;;;-139.71;76.30
3598;BME280;1813;52.016;8.714;2023-03-14T03:49:15;-16261.94;;;-139.71;76.21
3598;BME280;1813;52.016;8.714;2023-03-14T03:51:50;-16261.94;;;-139.71;76.06
3598;BME280;1813;52.016;8.714;2023-03-14T03:54:27;-16261.94;;;-139.71;75.95
3598;BME280;1813;52.016;8.714;2023-03-14T03:57:02;-16261.94;;;-139.71;75.91
3598;BME280;1813;52.016;8.714;2023-03-14T03:59:35;-16261.94;;;-139.71;76.12
3598;BME280;1813;52.016;8.714;2023-03-14T04:02:15;-16261.94;;;-139.71;76.32
3598;BME280;1813;52.016;8.714;2023-03-14T04:04:54;-16261.94;;;-139.71;76.55
3598;BME280;1813;52.016;8.714;2023-03-14T04:07:33;-16261.94;;;-139.71;76.80
3598;BME280;1813;52.016;8.714;2023-03-14T04:10:10;-16261.94;;;-139.71;77.02
3598;BME280;1813;52.016;8.714;2023-03-14T04:12:52;-16261.94;;;-139.71;77.15
3598;BME280;1813;52.016;8.714;2023-03-14T04:15:31;-16261.94;;;-139.71;77.32
3598;BME280;1813;52.016;8.714;2023-03-14T04:18:12;-16261.94;;;-139.71;77.44
3598;BME280;1813;52.016;8.714;2023-03-14T04:20:51;-16261.94;;;-139.71;77.73
3598;BME280;1813;52.016;8.714;2023-03-14T04:23:37;-16261.94;;;-139.71;77.94
3598;BME280;1813;52.016;8.714;2023-03-14T04:26:11;-16261.94;;;-139.71;78.15
3598;BME280;1813;52.016;8.714;2023-03-14T04:28:46;-16261.94;;;-139.71;78.29
3598;BME280;1813;52.016;8.714;2023-03-14T04:31:22;-16261.94;;;-139.71;78.29
3598;BME280;1813;52.016;8.714;2023-03-14T04:33:59;-16261.94;;;-139.71;77.93
3598;BME280;1813;52.016;8.714;2023-03-14T04:36:41;-16261.94;;;-139.71;78.24
3598;BME280;1813;52.016;8.714;2023-03-14T04:39:22;-16261.94;;;-139.71;78.01
3598;BME280;1813;52.016;8.714;2023-03-14T04:42:02;-16261.94;;;-139.71;77.91
3598;BME280;1813;52.016;8.714;2023-03-14T04:44:37;-16261.94;;;-139.71;78.01
3598;BME280;1813;52.016;8.714;2023-03-14T04:47:13;-16261.94;;;-139.71;78.07
3598;BME280;1813;52.016;8.714;2023-03-14T04:49:53;-16261.94;;;-139.71;77.86
3598;BME280;1813;52.016;8.714;2023-03-14T04:52:29;-16261.94;;;-139.71;77.88
3598;BME280;1813;52.016;8.714;2023-03-14T04:55:06;-16261.94;;;-139.71;77.93
3598;BME280;1813;52.016;8.714;2023-03-14T04:57:43;-16261.94;;;-139.71;77.79
3598;BME280;1813;52.016;8.714;2023-03-14T05:00:18;-16261.94;;;-139.71;77.84
3598;BME280;1813;52.016;8.714;2023-03-14T05:02:55;-16261.94;;;-139.71;77.84
3598;BME280;1813;52.016;8.714;2023-03-14T05:05:52;-16261.94;;;-139.71;77.70
3598;BME280;1813;52.016;8.714;2023-03-14T05:08:46;-16261.94;;;-139.71;77.81
3598;BME280;1813;52.016;8.714;2023-03-14T05:11:46;-16261.94;;;-139.71;77.74
3598;BME280;1813;52.016;8.714;2023-03-14T05:14:38;-16261.94;;;-139.71;77.69
3598;BME280;1813;52.016;8.714;2023-03-14T05:17:12;-16261.94;;;-139.71;77.88
3598;BME280;1813;52.016;8.714;2023-03-14T05:20:07;-16261.94;;;-139.71;77.95
3598;BME280;1813;52.016;8.714;2023-03-14T05:23:04;-16261.94;;;-139.71;77.82
3598;BME280;1813;52.016;8.714;2023-03-14T05:26:09;-16261.94;;;-139.71;77.92
3598;BME280;1813;52.016;8.714;2023-03-14T05:28:56;-16261.94;;;-139.71;77.97
3598;BME280;1813;52.016;8.714;2023-03-14T05:31:39;-16261.94;;;-139.71;78.05
3598;BME280;1813;52.016;8.714;2023-03-14T05:34:48;-16261.94;;;-139.71;77.97
3598;BME280;1813;52.016;8.714;2023-03-14T05:37:45;-16261.94;;;-139.71;77.91
3598;BME280;1813;52.016;8.714;2023-03-14T05:40:41;-16261.94;;;-139.71;77.95
3598;BME280;1813;52.016;8.714;2023-03-14T05:43:23;-16261.94;;;-139.71;77.97
3598;BME280;1813;52.016;8.714;2023-03-14T05:46:25;-16261.94;;;-139.71;77.89
3598;BME280;1813;52.016;8.714;2023-03-14T05:49:21;-16261.94;;;-139.71;77.80
3598;BME280;1813;52.016;8.714;2023-03-14T05:52:31;-16261.94;;;-139.71;77.56
3598;BME280;1813;52.016;8.714;2023-03-14T05:55:08;-16261.94;;;-139.71;77.47
3598;BME280;1813;52.016;8.714;2023-03-14T05:58:02;-16261.94;;;-139.71;77.02
3598;BME280;1813;52.016;8.714;2023-03-14T06:01:06;-16261.94;;;-139.71;76.68
3598;BME280;1813;52.016;8.714;2023-03-14T06:04:05;-16261.94;;;-139.71;76.50
3598;BME280;1813;52.016;8.714;2023-03-14T06:06:41;-16261.94;;;-139.71;76.27
3598;BME280;1813;52.016;8.714;2023-03-14T06:09:16;-16261.94;;;-139.71;76.09
3598;BME280;1813;52.016;8.714;2023-03-14T06:11:53;-16261.94;;;-139.71;76.02
3598;BME280;1813;52.016;8.714;2023-03-14T06:14:30;-16261.94;;;-139.71;76.05
3598;BME280;1813;52.016;8.714;2023-03-14T06:17:08;-16261.94;;;-139.71;76.20
3598;BME280;1813;52.016;8.714;2023-03-14T06:19:50;-16261.94;;;-139.71;76.32
3598;BME280;1813;52.016;8.714;2023-03-14T06:22:24;-16261.94;;;-139.71;76.69
3598;BME280;1813;52.016;8.714;2023-03-14T06:24:59;-16261.94;;;-139.71;77.12
3598;BME280;1813;52.016;8.714;2023-03-14T06:27:35;-16261.94;;;-139.71;77.29
3598;BME280;1813;52.016;8.714;2023-03-14T06:30:13;-16261.94;;;-139.71;77.55
3598;BME280;1813;52.016;8.714;2023-03-14T06:32:50;-16261.94;;;-139.71;77.66
3598;BME280;1813;52.016;8.714;2023-03-14T06:35:26;-16261.94;;;-139.71;77.92
3598;BME280;1813;52.016;8.714;2023-03-14T06:38:00;-16261.94;;;-139.71;78.22
3598;BME280;1813;52.016;8.714;2023-03-14T06:40:35;-16261.94;;;-139.71;78.37
3598;BME280;1813;52.016;8.714;2023-03-14T06:43:17;-16261.94;;;-139.71;78.50
3598;BME280;1813;52.016;8.714;2023-03-14T06:45:54;-16261.94;;;-139.71;78.87
3598;BME280;1813;52.016;8.714;2023-03-14T06:48:27;-16261.94;;;-139.71;79.25
3598;BME280;1813;52.016;8.714;2023-03-14T06:51:03;-16261.94;;;-139.71;79.54
3598;BME280;1813;52.016;8.714;2023-03-14T06:53:37;-16261.94;;;-139.71;79.92
3598;BME280;1813;52.016;8.714;2023-03-14T06:56:14;-16261.94;;;-139.71;80.46
3598;BME280;1813;52.016;8.714;2023-03-14T06:58:49;-16261.94;;;-139.71;80.77
3598;BME280;1813;52.016;8.714;2023-03-14T07:01:29;-16261.94;;;-139.71;81.19
3598;BME280;1813;52.016;8.714;2023-03-14T07:04:11;-16261.94;;;-139.71;81.43
3598;BME280;1813;52.016;8.714;2023-03-14T07:06:49;-16261.94;;;-139.71;81.60
3598;BME280;1813;52.016;8.714;2023-03-14T07:09:24;-16261.94;;;-139.71;81.61
3598;BME280;1813;52.016;8.714;2023-03-14T07:12:04;-16261.94;;;-139.71;81.86
3598;BME280;1813;52.016;8.714;2023-03-14T07:14:37;-16261.94;;;-139.71;81.87
3598;BME280;1813;52.016;8.714;2023-03-14T07:17:17;-16261.94;;;-139.71;82.02
3598;BME280;1813;52.016;8.714;2023-03-14T07:19:51;-16261.94;;;-139.71;82.09
3598;BME280;1813;52.016;8.714;2023-03-14T07:22:25;-16261.94;;;-139.71;82.39
3598;BME280;1813;52.016;8.714;2023-03-14T07:24:59;-16261.94;;;-139.71;82.79
3598;BME280;1813;52.016;8.714;2023-03-14T07:27:34;-16261.94;;;-139.71;83.12
3598;BME280;1813;52.016;8.714;2023-03-14T07:30:09;-16261.94;;;-139.71;83.51
3598;BME280;1813;52.016;8.714;2023-03-14T07:32:46;-16261.94;;;-139.71;83.84
3598;BME280;1813;52.016;8.714;2023-03-14T07:35:21;-16261.94;;;-139.71;84.33
3598;BME280;1813;52.016;8.714;2023-03-14T07:37:56;-16261.94;;;-139.71;84.86
3598;BME280;1813;52.016;8.714;2023-03-14T07:40:40;-16261.94;;;-139.71;85.48
3598;BME280;1813;52.016;8.714;2023-03-14T07:43:14;-16261.94;;;-139.71;85.81
3598;BME280;1813;52.016;8.714;2023-03-14T07:45:53;-16261.94;;;-139.71;85.96
3598;BME280;1813;52.016;8.714;2023-03-14T07:48:30;-16261.94;;;-139.71;86.07
3598;BME280;1813;52.016;8.714;2023-03-14T07:51:04;-16261.94;;;-139.71;86.47
3598;BME280;1813;52.016;8.714;2023-03-14T07:53:38;-16261.94;;;-139.71;86.54
3598;BME280;1813;52.016;8.714;2023-03-14T07:56:13;-16261.94;;;-139.71;86.64
3598;BME280;1813;52.016;8.714;2023-03-14T07:58:47;-16261.94;;;-139.71;86.75
3598;BME280;1813;52.016;8.714;2023-03-14T08:01:23;-16261.94;;;-139.71;87.03
3598;BME280;1813;52.016;8.714;2023-03-14T08:04:00;-16261.94;;;-139.71;87.45
3598;BME280;1813;52.016;8.714;2023-03-14T08:06:39;-16261.94;;;-139.71;87.60
3598;BME280;1813;52.016;8.714;2023-03-14T08:09:13;-16261.94;;;-139.71;87.82
3598;BME280;1813;52.016;8.714;2023-03-14T08:11:47;-16261.94;;;-139.71;88.17
3598;BME280;1813;52.016;8.714;2023-03-14T08:14:23;-16261.94;;;-139.71;88.22
3598;BME280;1813;52.016;8.714;2023-03-14T08:17:08;-16261.94;;;-139.71;87.96
3598;BME280;1813;52.016;8.714;2023-03-14T08:19:45;-16261.94;;;-139.71;87.86
3598;BME280;1813;52.016;8.714;2023-03-14T08:22:19;-16261.94;;;-139.71;87.87
3598;BME280;1813;52.016;8.714;2023-03-14T08:24:54;-16261.94;;;-139.71;87.77
3598;BME280;1813;52.016;8.714;2023-03-14T08:27:31;-16261.94;;;-139.71;87.70
3598;BME280;1813;52.016;8.714;2023-03-14T08:30:08;-16261.94;;;-139.71;87.77
3598;BME280;1813;52.016;8.714;2023-03-14T08:32:44;-16261.94;;;-139.71;87.49
3598;BME280;1813;52.016;8.714;2023-03-14T08:35:22;-16261.94;;;-139.71;87.45
3598;BME280;1813;52.016;8.714;2023-03-14T08:37:56;-16261.94;;;-139.71;87.48
3598;BME280;1813;52.016;8.714;2023-03-14T08:40:34;-16261.94;;;-139.71;87.44
3598;BME280;1813;52.016;8.714;2023-03-14T08:43:08;-16261.94;;;-139.71;88.13
3598;BME280;1813;52.016;8.714;2023-03-14T08:45:42;-16261.94;;;-139.71;88.29
3598;BME280;1813;52.016;8.714;2023-03-14T08:48:16;-16261.94;;;-139.71;88.39
3598;BME280;1813;52.016;8.714;2023-03-14T08:50:53;-16261.94;;;-139.71;88.65
3598;BME280;1813;52.016;8.714;2023-03-14T08:53:29;-16261.94;;;-139.71;88.42
3598;BME280;1813;52.016;8.714;2023-03-14T08:56:03;-16261.94;;;-139.71;88.31
3598;BME280;1813;52.016;8.714;2023-03-14T08:58:40;-16261.94;;;-139.71;88.02
3598;BME280;1813;52.016;8.714;2023-03-14T09:01:15;-16261.94;;;-139.71;88.35
3598;BME280;1813;52.016;8.714;2023-03-14T09:03:50;-16261.94;;;-139.71;87.90
3598;BME280;1813;52.016;8.714;2023-03-14T09:06:26;-16261.94;;;-139.71;87.94
3598;BME280;1813;52.016;8.714;2023-03-14T09:09:01;-16261.94;;;-139.71;87.29
3598;BME280;1813;52.016;8.714;2023-03-14T09:11:35;-16261.94;;;-139.71;86.37
3598;BME280;1813;52.016;8.714;2023-03-14T09:14:09;-16261.94;;;-139.71;85.53
3598;BME280;1813;52.016;8.714;2023-03-14T09:16:46;-16261.94;;;-139.71;85.07
3598;BME280;1813;52.016;8.714;2023-03-14T09:19:21;-16261.94;;;-139.71;84.91
3598;BME280;1813;52.016;8.714;2023-03-14T09:21:57;-16261.94;;;-139.71;84.70
3598;BME280;1813;52.016;8.714;2023-03-14T09:24:31;-16261.94;;;-139.71;84.54
3598;BME280;1813;52.016;8.714;2023-03-14T09:27:05;-16261.94;;;-139.71;84.70
3598;BME280;1813;52.016;8.714;2023-03-14T09:29:39;-16261.94;;;-139.71;84.72
3598;BME280;1813;52.016;8.714;2023-03-14T09:32:13;-16261.94;;;-139.71;84.33
3598;BME280;1813;52.016;8.714;2023-03-14T09:34:48;-16261.94;;;-139.71;84.19
3598;BME280;1813;52.016;8.714;2023-03-14T09:37:25;-16261.94;;;-139.71;83.79
3598;BME280;1813;52.016;8.714;2023-03-14T09:39:59;-16261.94;;;-139.71;83.76
3598;BME280;1813;52.016;8.714;2023-03-14T09:42:41;-16261.94;;;-139.71;83.46
3598;BME280;1813;52.016;8.714;2023-03-14T09:45:21;-16261.94;;;-139.71;83.33
3598;BME280;1813;52.016;8.714;2023-03-14T09:47:58;-16261.94;;;-139.71;83.44
3598;BME280;1813;52.016;8.714;2023-03-14T09:50:38;-16261.94;;;-139.71;83.36
3598;BME280;1813;52.016;8.714;2023-03-14T09:53:27;-16261.94;;;-139.71;83.26
3598;BME280;1813;52.016;8.714;2023-03-14T09:56:03;-16261.94;;;-139.71;83.27
3598;BME280;1813;52.016;8.714;2023-03-14T09:58:41;-16261.94;;;-139.71;83.00
3598;BME280;1813;52.016;8.714;2023-03-14T10:01:22;-16261.94;;;-139.71;83.39
3598;BME280;1813;52.016;8.714;2023-03-14T10:04:05;-16261.94;;;-139.71;83.78
3598;BME280;1813;52.016;8.714;2023-03-14T10:06:52;-16261.94;;;-139.71;84.14
3598;BME280;1813;52.016;8.714;2023-03-14T10:09:32;-16261.94;;;-139.71;84.56
3598;BME280;1813;52.016;8.714;2023-03-14T10:12:08;-16261.94;;;-139.71;84.93
3598;BME280;1813;52.016;8.714;2023-03-14T10:14:48;-16261.94;;;-139.71;84.94
3598;BME280;1813;52.016;8.714;2023-03-14T10:17:25;-16261.94;;;-139.71;84.72
3598;BME280;1813;52.016;8.714;2023-03-14T10:20:00;-16261.94;;;-139.71;84.72
3598;BME280;1813;52.016;8.714;2023-03-14T10:22:35;-16261.94;;;-139.71;84.46
3598;BME280;1813;52.016;8.714;2023-03-14T10:25:26;-16261.94;;;-139.71;84.57
3598;BME280;1813;52.016;8.714;2023-03-14T10:28:02;-16261.94;;;-139.71;84.45
3598;BME280;1813;52.016;8.714;2023-03-14T10:30:44;-16261.94;;;-139.71;84.51
3598;BME280;1813;52.016;8.714;2023-03-14T10:33:22;-16261.94;;;-139.71;84.20
3598;BME280;1813;52.016;8.714;2023-03-14T10:36:00;-16261.94;;;-139.71;84.49
3598;BME280;1813;52.016;8.714;2023-03-14T10:38:38;-16261.94;;;-139.71;84.72
3598;BME280;1813;52.016;8.714;2023-03-14T10:41:19;-16261.94;;;-139.71;84.58
3598;BME280;1813;52.016;8.714;2023-03-14T10:43:59;-16261.94;;;-139.71;84.46
3598;BME280;1813;52.016;8.714;2023-03-14T10:46:34;-16261.94;;;-139.71;84.19
3598;BME280;1813;52.016;8.714;2023-03-14T10:49:29;-16261.94;;;-139.71;83.57
3598;BME280;1813;52.016;8.714;2023-03-14T10:52:17;-16261.94;;;-139.71;83.72
3598;BME280;1813;52.016;8.714;2023-03-14T10:54:56;-16261.94;;;-139.71;81.27
3598;BME280;1813;52.016;8.714;2023-03-14T10:57:41;-16261.94;;;-139.71;79.12
3598;BME280;1813;52.016;8.714;2023-03-14T11:00:18;-16261.94;;;-139.71;78.51
3598;BME280;1813;52.016;8.714;2023-03-14T11:03:03;-16261.94;;;-139.71;77.99
3598;BME280;1813;52.016;8.714;2023-03-14T11:05:55;-16261.94;;;-139.71;77.74
3598;BME280;1813;52.016;8.714;2023-03-14T11:08:32;-16261.94;;;-139.71;77.89
3598;BME280;1813;52.016;8.714;2023-03-14T11:11:16;-16261.94;;;-139.71;77.77
3598;BME280;1813;52.016;8.714;2023-03-14T11:14:03;-16261.94;;;-139.71;77.29
3598;BME280;1813;52.016;8.714;2023-03-14T11:16:52;-16261.94;;;-139.71;76.45
3598;BME280;1813;52.016;8.714;2023-03-14T11:19:44;-16261.94;;;-139.71;75.62
3598;BME280;1813;52.016;8.714;2023-03-14T11:22:25;-16261.94;;;-139.71;74.64
3598;BME280;1813;52.016;8.714;2023-03-14T11:25:21;-16261.94;;;-139.71;74.64
3598;BME280;1813;52.016;8.714;2023-03-14T11:28:04;-16261.94;;;-139.71;74.26
3598;BME280;1813;52.016;8.714;2023-03-14T11:30:50;-16261.94;;;-139.71;73.96
3598;BME280;1813;52.016;8.714;2023-03-14T11:33:27;-16261.94;;;-139.71;73.54
3598;BME280;1813;52.016;8.714;2023-03-14T11:36:06;-16261.94;;;-139.71;73.43
3598;BME280;1813;52.016;8.714;2023-03-14T11:38:46;-16261.94;;;-139.71;73.05
3598;BME280;1813;52.016;8.714;2023-03-14T11:41:25;-16261.94;;;-139.71;72.45
3598;BME280;1813;52.016;8.714;2023-03-14T11:44:03;-16261.94;;;-139.71;72.22
3598;BME280;1813;52.016;8.714;2023-03-14T11:46:44;-16261.94;;;-139.71;71.17
3598;BME280;1813;52.016;8.714;2023-03-14T11:49:30;-16261.94;;;-139.71;71.08
3598;BME280;1813;52.016;8.714;2023-03-14T11:52:12;-16261.94;;;-139.71;71.58
3598;BME280;1813;52.016;8.714;2023-03-14T11:54:52;-16261.94;;;-139.71;72.79
3598;BME280;1813;52.016;8.714;2023-03-14T11:57:28;-16261.94;;;-139.71;72.79
3598;BME280;1813;52.016;8.714;2023-03-14T12:00:12;-16261.94;;;-139.71;72.57
3598;BME280;1813;52.016;8.714;2023-03-14T12:02:57;-16261.94;;;-139.71;72.25
3598;BME280;1813;52.016;8.714;2023-03-14T12:05:46;-16261.94;;;-139.71;72.27
3598;BME280;1813;52.016;8.714;2023-03-14T12:08:46;-16261.94;;;-139.71;72.66
3598;BME280;1813;52.016;8.714;2023-03-14T12:11:30;-16261.94;;;-139.71;73.54
3598;BME280;1813;52.016;8.714;2023-03-14T12:14:20;-16261.94;;;-139.71;73.74
3598;BME280;1813;52.016;8.714;2023-03-14T12:17:03;-16261.94;;;-139.71;73.19
3598;BME280;1813;52.016;8.714;2023-03-14T12:19:41;-16261.94;;;-139.71;73.24
3598;BME280;1813;52.016;8.714;2023-03-14T12:22:30;-16261.94;;;-139.71;72.96
3598;BME280;1813;52.016;8.714;2023-03-14T12:25:14;-16261.94;;;-139.71;72.57
3598;BME280;1813;52.016;8.714;2023-03-14T12:28:04;-16261.94;;;-139.71;72.44
3598;BME280;1813;52.016;8.714;2023-03-14T12:30:41;-16261.94;;;-139.71;72.49
3598;BME280;1813;52.016;8.714;2023-03-14T12:33:35;-16261.94;;;-139.71;72.62
3598;BME280;1813;52.016;8.714;2023-03-14T12:39:47;-16261.94;;;-139.71;72.05
3598;BME280;1813;52.016;8.714;2023-03-14T12:42:57;-16261.94;;;-139.71;71.45
3598;BME280;1813;52.016;8.714;2023-03-14T12:45:39;-16261.94;;;-139.71;70.65
3598;BME280;1813;52.016;8.714;2023-03-14T12:48:18;-16261.94;;;-139.71;71.06
3598;BME280;1813;52.016;8.714;2023-03-14T12:51:01;-16261.94;;;-139.71;71.03
3598;BME280;1813;52.016;8.714;2023-03-14T12:54:03;-16261.94;;;-139.71;71.25
3598;BME280;1813;52.016;8.714;2023-03-14T12:59:58;-16261.94;;;-139.71;70.28
3598;BME280;1813;52.016;8.714;2023-03-14T13:02:38;-16261.94;;;-139.71;69.72
3598;BME280;1813;52.016;8.714;2023-03-14T13:05:17;-16261.94;;;-139.71;68.87
3598;BME280;1813;52.016;8.714;2023-03-14T13:08:05;-16261.94;;;-139.71;67.85
3598;BME280;1813;52.016;8.714;2023-03-14T13:10:45;-16261.94;;;-139.71;67.59
3598;BME280;1813;52.016;8.714;2023-03-14T13:13:25;-16261.94;;;-139.71;67.60
3598;BME280;1813;52.016;8.714;2023-03-14T13:16:03;-16261.94;;;-139.71;67.70
3598;BME280;1813;52.016;8.714;2023-03-14T13:18:40;-16261.94;;;-139.71;67.18
3598;BME280;1813;52.016;8.714;2023-03-14T13:21:19;-16261.94;;;-139.71;66.85
3598;BME280;1813;52.016;8.714;2023-03-14T13:23:58;-16261.94;;;-139.71;66.79
3598;BME280;1813;52.016;8.714;2023-03-14T13:26:36;-16261.94;;;-139.71;66.68
3598;BME280;1813;52.016;8.714;2023-03-14T13:29:16;-16261.94;;;-139.71;67.16
3598;BME280;1813;52.016;8.714;2023-03-14T13:31:54;-16261.94;;;-139.71;67.67
3598;BME280;1813;52.016;8.714;2023-03-14T13:34:30;-16261.94;;;-139.71;67.36
3598;BME280;1813;52.016;8.714;2023-03-14T13:37:05;-16261.94;;;-139.71;67.17
3598;BME280;1813;52.016;8.714;2023-03-14T13:39:39;-16261.94;;;-139.71;68.17
3598;BME280;1813;52.016;8.714;2023-03-14T13:42:15;-16261.94;;;-139.71;69.03
3598;BME280;1813;52.016;8.714;2023-03-14T13:44:51;-16261.94;;;-139.71;69.10
3598;BME280;1813;52.016;8.714;2023-03-14T13:47:29;-16261.94;;;-139.71;69.11
3598;BME280;1813;52.016;8.714;2023-03-14T13:50:04;-16261.94;;;-139.71;69.28
3598;BME280;1813;52.016;8.714;2023-03-14T13:52:38;-16261.94;;;-139.71;69.25
3598;BME280;1813;52.016;8.714;2023-03-14T13:55:17;-16261.94;;;-139.71;69.68
3598;BME280;1813;52.016;8.714;2023-03-14T13:57:53;-16261.94;;;-139.71;69.37
3598;BME280;1813;52.016;8.714;2023-03-14T14:00:29;-16261.94;;;-139.71;69.21
3598;BME280;1813;52.016;8.714;2023-03-14T14:03:10;-16261.94;;;-139.71;69.54